Flint, United Kingdom
Current Conditions -  °F | °C
As of 9:20 AM on Friday 24 Oct 2014 (Local Time) from EGNR Reporting Station
Broken Clouds Broken Clouds  
Wind Chill: 54°   Ceiling: 1500
Heat Index: 54°   Visibility: 6mi
Dew Point: 54°   Wind: 3mph
Humidity: 100%   Direction: 160°SSE
Pressure: 29.91"   Gusts: NA
Location:  53.24°N, 3.13°W
Report Text: EGNR 240820Z 16003KT 9999 FEW003 BKN015 12/12 Q1013
Loading
Personal Weather Stations






























Interactive Weather Map
Tropical Storm Tracking
New forecast layout! Learn more

10-Day Weather Forecast

Advertisements
Track Severe Weather on mobile